createdAt,value
2022-12-20T00:00:51.767Z,101453.91
2022-12-20T00:03:18.790Z,101438.25
2022-12-20T00:05:45.438Z,101440.53
2022-12-20T00:08:12.341Z,101445.72
2022-12-20T00:10:40.993Z,101442.50
2022-12-20T00:13:08.300Z,101436.81
2022-12-20T00:15:35.470Z,101430.41
2022-12-20T00:18:02.175Z,101434.88
2022-12-20T00:20:29.351Z,101429.50
2022-12-20T00:22:56.359Z,101429.31
2022-12-20T00:25:23.043Z,101423.28
2022-12-20T00:27:50.261Z,101406.50
2022-12-20T00:30:18.080Z,101421.84
2022-12-20T00:32:45.250Z,101419.69
2022-12-20T00:35:12.450Z,101422.88
2022-12-20T00:37:39.253Z,101405.25
2022-12-20T00:40:06.648Z,101408.84
2022-12-20T00:42:33.392Z,101401.50
2022-12-20T00:44:59.937Z,101391.22
2022-12-20T00:47:26.473Z,101391.22
2022-12-20T00:49:53.023Z,101379.44
2022-12-20T00:52:19.628Z,101384.41
2022-12-20T00:54:46.144Z,101382.25
2022-12-20T00:57:12.729Z,101383.31
2022-12-20T00:59:39.249Z,101382.28
2022-12-20T01:02:05.933Z,101387.56
2022-12-20T01:04:32.686Z,101392.75
2022-12-20T01:06:59.560Z,101396.88
2022-12-20T01:09:26.094Z,101376.91
2022-12-20T01:11:52.637Z,101366.38
2022-12-20T01:14:19.155Z,101357.63
2022-12-20T01:16:47.397Z,101347.31
2022-12-20T01:19:17.398Z,101350.84
2022-12-20T01:21:44.925Z,101348.00
2022-12-20T01:24:12.820Z,101331.59
2022-12-20T01:26:39.490Z,101318.06
2022-12-20T01:29:06.059Z,101324.97
2022-12-20T01:31:32.960Z,101317.50
2022-12-20T01:34:00.793Z,101304.44
2022-12-20T01:36:31.225Z,101306.25
2022-12-20T01:39:03.130Z,101295.69
2022-12-20T01:41:30.843Z,101290.16
2022-12-20T01:44:00.343Z,101289.78
2022-12-20T01:46:29.491Z,101274.44
2022-12-20T01:49:22.213Z,101252.13
2022-12-20T01:52:20.043Z,101254.81
2022-12-20T01:55:00.411Z,101244.97
2022-12-20T01:57:44.794Z,101246.94
2022-12-20T02:00:12.845Z,101240.53
2022-12-20T02:02:40.745Z,101244.63
2022-12-20T02:05:07.755Z,101237.47
2022-12-20T02:07:37.180Z,101237.81
2022-12-20T02:10:04.857Z,101226.22
2022-12-20T02:12:40.360Z,101218.50
2022-12-20T02:15:24.819Z,101186.63
2022-12-20T02:18:12.330Z,101203.66
2022-12-20T02:20:53.957Z,101206.75
2022-12-20T02:24:14.347Z,101203.03
2022-12-20T02:27:17.250Z,101202.13
2022-12-20T02:30:05.633Z,101197.16
2022-12-20T02:32:43.417Z,101195.34
2022-12-20T02:35:14.367Z,101170.91
2022-12-20T02:37:52.303Z,101187.44
2022-12-20T02:40:27.838Z,101186.00
2022-12-20T02:42:58.939Z,101178.00
2022-12-20T02:45:33.885Z,101179.56
2022-12-20T02:48:06.942Z,101163.13
2022-12-20T02:50:45.718Z,101162.91
2022-12-20T02:53:13.863Z,101153.47
2022-12-20T02:56:36.235Z,101151.47
2022-12-20T02:59:11.816Z,101135.03
2022-12-20T03:01:45.032Z,101138.19
2022-12-20T03:04:12.581Z,101135.22
2022-12-20T03:06:40.320Z,101133.47
2022-12-20T03:09:06.879Z,101125.00
2022-12-20T03:11:33.937Z,101125.56
2022-12-20T03:14:00.434Z,101124.75
2022-12-20T03:16:27.142Z,101118.88
2022-12-20T03:18:53.701Z,101105.09
2022-12-20T03:21:20.252Z,101098.56
2022-12-20T03:23:46.989Z,101105.66
2022-12-20T03:26:13.511Z,101099.94
2022-12-20T03:28:40.032Z,101098.63
2022-12-20T03:31:06.785Z,101092.63
2022-12-20T03:33:33.375Z,101091.91
2022-12-20T03:36:00.044Z,101081.91
2022-12-20T03:38:26.598Z,101076.69
2022-12-20T03:40:53.270Z,101075.22
2022-12-20T03:43:19.764Z,101074.09
2022-12-20T03:45:46.318Z,101067.31
2022-12-20T03:48:12.881Z,101062.94
2022-12-20T03:50:39.427Z,101065.19
2022-12-20T03:53:06.028Z,101062.78
2022-12-20T03:55:32.582Z,101045.28
2022-12-20T03:57:59.135Z,101061.94
2022-12-20T04:00:26.207Z,101037.16
2022-12-20T04:02:52.964Z,101035.47
2022-12-20T04:05:19.718Z,101045.03
2022-12-20T04:07:46.255Z,101023.59
2022-12-20T04:10:13.090Z,101034.22
2022-12-20T04:12:39.614Z,101020.56
2022-12-20T04:15:06.642Z,101019.09
2022-12-20T04:17:33.127Z,101014.88
2022-12-20T04:20:18.860Z,101011.50
2022-12-20T04:22:49.923Z,101004.88
2022-12-20T04:25:18.596Z,101006.97
2022-12-20T04:27:45.605Z,100999.47
2022-12-20T04:30:13.049Z,100994.44
2022-12-20T04:32:39.570Z,101006.41
2022-12-20T04:35:07.009Z,100990.19
2022-12-20T04:37:33.531Z,100984.44
2022-12-20T04:40:00.068Z,100985.91
2022-12-20T04:42:26.672Z,100983.88
2022-12-20T04:44:53.244Z,100973.88
2022-12-20T04:47:19.926Z,100959.75
2022-12-20T04:49:46.480Z,100949.59
2022-12-20T04:52:31.300Z,100955.97
2022-12-20T04:54:57.917Z,100947.72
2022-12-20T04:57:24.445Z,100946.84
2022-12-20T04:59:50.931Z,100940.38
2022-12-20T05:02:17.576Z,100927.25
2022-12-20T05:04:44.167Z,100926.81
